Atlantic Beach, New York
Current Conditions -  °F | °C
As of 10:51 AM on Friday 24 Oct 2014 (Local Time) from KJFK Reporting Station
Broken Clouds Broken Clouds  
Wind Chill: 57°   Ceiling: 16000
Heat Index: 57°   Visibility: 10mi
Dew Point: 44°   Wind: 18mph
Humidity: 62%   Direction: 330°NNW
Pressure: 29.82"   Gusts: NA
Location:  40.59°N, 73.73°W
Report Text: KJFK 241451Z 33016KT 10SM FEW028 SCT080 BKN160 BKN250 14/07 A2982 RMK AO2 SLP096 T01390067 51001
Loading
Personal Weather Stations






























Interactive Weather Map New forecast layout! Learn more

10-Day Weather Forecast

Advertisements
Track Severe Weather on mobile